createdAt,value
2022-09-26T00:01:35.295Z,52.72
2022-09-26T00:04:07.151Z,52.82
2022-09-26T00:06:34.574Z,52.79
2022-09-26T00:09:02.067Z,52.80
2022-09-26T00:11:32.722Z,52.70
2022-09-26T00:14:07.922Z,52.71
2022-09-26T00:16:35.562Z,52.69
2022-09-26T00:19:03.661Z,52.63
2022-09-26T00:21:32.209Z,52.71
2022-09-26T00:24:04.883Z,52.71
2022-09-26T00:26:34.468Z,52.71
2022-09-26T00:29:05.198Z,52.72
2022-09-26T00:31:35.956Z,52.79
2022-09-26T00:34:10.710Z,52.85
2022-09-26T00:36:39.100Z,52.78
2022-09-26T00:39:11.389Z,52.80
2022-09-26T00:41:39.631Z,52.81
2022-09-26T00:44:37.566Z,52.81
2022-09-26T00:47:14.590Z,52.93
2022-09-26T00:49:52.803Z,52.87
2022-09-26T00:52:32.948Z,52.86
2022-09-26T00:55:04.433Z,52.95
2022-09-26T00:57:38.445Z,52.84
2022-09-26T01:00:10.810Z,52.94
2022-09-26T01:02:40.549Z,52.85
2022-09-26T01:05:11.143Z,52.94
2022-09-26T01:07:38.654Z,52.92
2022-09-26T01:10:07.171Z,52.98
2022-09-26T01:12:38.796Z,53.02
2022-09-26T01:15:09.641Z,53.04
2022-09-26T01:17:40.002Z,53.06
2022-09-26T01:20:34.212Z,53.00
2022-09-26T01:23:28.926Z,53.00
2022-09-26T01:26:33.556Z,53.08
2022-09-26T01:29:32.112Z,53.05
2022-09-26T01:35:48.815Z,53.04
2022-09-26T01:38:53.773Z,52.96
2022-09-26T01:41:27.277Z,53.03
2022-09-26T01:44:05.200Z,53.04
2022-09-26T01:46:51.823Z,52.96
2022-09-26T01:49:26.110Z,52.99
2022-09-26T01:52:22.520Z,52.98
2022-09-26T01:55:00.031Z,52.89
2022-09-26T01:57:40.697Z,52.95
2022-09-26T02:00:12.905Z,52.96
2022-09-26T02:02:46.440Z,52.86
2022-09-26T02:05:26.233Z,52.85
2022-09-26T02:08:07.324Z,52.96
2022-09-26T02:10:50.217Z,52.80
2022-09-26T02:13:25.565Z,52.86
2022-09-26T02:15:59.029Z,52.79
2022-09-26T02:18:38.610Z,52.89
2022-09-26T02:21:24.240Z,52.82
2022-09-26T02:23:55.053Z,52.94
2022-09-26T02:26:26.750Z,52.82
2022-09-26T02:29:01.268Z,52.91
2022-09-26T02:31:36.119Z,52.81
2022-09-26T02:34:08.586Z,52.83
2022-09-26T02:36:37.064Z,52.94
2022-09-26T02:39:05.344Z,52.86
2022-09-26T02:41:58.057Z,53.00
2022-09-26T02:44:42.844Z,52.95
2022-09-26T02:47:26.302Z,52.97
2022-09-26T02:50:20.930Z,52.98
2022-09-26T02:53:08.234Z,52.91
2022-09-26T02:55:52.243Z,53.09
2022-09-26T02:58:26.367Z,52.99
2022-09-26T03:01:20.195Z,52.99
2022-09-26T03:03:54.911Z,52.95
2022-09-26T03:06:30.866Z,52.85
2022-09-26T03:09:00.398Z,52.94
2022-09-26T03:11:29.939Z,52.98
2022-09-26T03:14:02.115Z,52.94
2022-09-26T03:16:34.672Z,53.02
2022-09-26T03:19:32.747Z,52.97
2022-09-26T03:22:00.458Z,52.98
2022-09-26T03:24:31.956Z,52.95
2022-09-26T03:27:01.065Z,52.85
2022-09-26T03:29:29.381Z,52.87
2022-09-26T03:31:57.442Z,52.86
2022-09-26T03:34:25.275Z,52.92
2022-09-26T03:36:53.835Z,52.89
2022-09-26T03:39:22.841Z,52.89
2022-09-26T03:42:14.545Z,52.87
2022-09-26T03:44:44.415Z,52.90
2022-09-26T03:47:12.508Z,52.90
2022-09-26T03:49:42.089Z,52.81
2022-09-26T03:52:13.452Z,52.77
2022-09-26T03:54:41.490Z,52.86
2022-09-26T03:57:10.912Z,52.78
2022-09-26T03:59:44.529Z,52.90
2022-09-26T04:02:14.197Z,52.83
2022-09-26T04:04:43.988Z,52.83
2022-09-26T04:07:13.524Z,52.89
2022-09-26T04:09:41.803Z,52.77
2022-09-26T04:12:09.311Z,52.88
2022-09-26T04:14:38.149Z,52.87
2022-09-26T04:17:05.488Z,52.90
2022-09-26T04:19:36.949Z,52.89
2022-09-26T04:22:08.432Z,52.95
2022-09-26T04:24:36.295Z,52.89
2022-09-26T04:27:04.449Z,52.87
2022-09-26T04:29:35.502Z,52.88
2022-09-26T04:32:17.660Z,52.90
2022-09-26T04:35:05.113Z,52.92
2022-09-26T04:37:35.498Z,52.96
2022-09-26T04:40:05.190Z,52.85
2022-09-26T04:42:37.407Z,52.90
2022-09-26T04:45:12.313Z,52.94
2022-09-26T04:47:40.422Z,52.89
2022-09-26T04:50:37.050Z,52.92
2022-09-26T04:53:08.381Z,52.90
2022-09-26T04:55:51.452Z,53.01
2022-09-26T04:58:23.129Z,53.01
2022-09-26T05:01:05.611Z,52.94
2022-09-26T05:03:58.973Z,52.90
2022-09-26T05:06:29.586Z,52.81
2022-09-26T05:08:59.283Z,52.82
2022-09-26T05:11:43.975Z,52.91
2022-09-26T05:14:15.830Z,52.80
2022-09-26T05:16:44.138Z,52.75
2022-09-26T05:19:14.593Z,52.61
2022-09-26T05:22:05.256Z,52.53
2022-09-26T05:24:51.142Z,52.53
2022-09-26T05:27:21.986Z,52.56
2022-09-26T05:29:57.717Z,52.47
2022-09-26T05:32:25.665Z,52.34
2022-09-26T05:34:58.348Z,52.32
2022-09-26T05:37:27.767Z,52.32
2022-09-26T05:40:14.361Z,52.28
2022-09-26T05:42:46.752Z,52.25
2022-09-26T05:45:20.764Z,52.38
2022-09-26T05:48:15.909Z,52.33
2022-09-26T05:50:55.638Z,52.36
2022-09-26T05:53:26.375Z,52.29
2022-09-26T05:55:55.530Z,52.41
2022-09-26T05:58:50.384Z,52.44
2022-09-26T06:01:23.368Z,53.89
2022-09-26T06:04:08.143Z,56.25
2022-09-26T06:06:44.845Z,57.46
2022-09-26T06:09:14.667Z,57.82
2022-09-26T06:12:01.537Z,58.76
2022-09-26T06:14:32.690Z,58.86
2022-09-26T06:19:48.181Z,59.39
2022-09-26T06:22:22.602Z,60.14
2022-09-26T06:24:53.888Z,61.13
2022-09-26T06:27:45.037Z,61.17
2022-09-26T06:30:13.341Z,61.05
2022-09-26T06:32:46.680Z,60.94
2022-09-26T06:35:38.332Z,61.16
2022-09-26T06:38:26.399Z,61.34
2022-09-26T06:40:59.594Z,61.25
2022-09-26T06:43:38.214Z,61.18
2022-09-26T06:46:32.168Z,61.10
2022-09-26T06:49:18.144Z,60.87
2022-09-26T06:51:55.771Z,60.95
2022-09-26T06:54:25.162Z,60.93
2022-09-26T06:56:53.439Z,60.94
2022-09-26T06:59:26.626Z,60.91
2022-09-26T07:02:03.709Z,61.05
2022-09-26T07:04:41.628Z,61.49
2022-09-26T07:07:37.869Z,61.86
2022-09-26T07:10:08.035Z,61.61
2022-09-26T07:12:53.893Z,61.42
2022-09-26T07:15:22.082Z,61.42
2022-09-26T07:17:49.962Z,61.27
2022-09-26T07:20:47.799Z,61.50
2022-09-26T07:23:41.070Z,61.54
2022-09-26T07:26:30.802Z,61.53
2022-09-26T07:29:00.189Z,61.65
2022-09-26T07:31:30.158Z,61.80
2022-09-26T07:34:15.839Z,61.97
2022-09-26T07:36:50.005Z,62.34
2022-09-26T07:39:23.840Z,62.71
2022-09-26T07:41:52.755Z,63.23
2022-09-26T07:47:31.173Z,63.22
2022-09-26T07:50:38.452Z,63.12
2022-09-26T07:53:31.488Z,62.96
2022-09-26T07:56:30.923Z,62.81
2022-09-26T07:59:43.369Z,62.82
2022-09-26T08:02:47.421Z,63.11
2022-09-26T08:05:21.750Z,63.03
2022-09-26T08:07:50.543Z,62.96
2022-09-26T08:10:46.483Z,63.24
2022-09-26T08:13:30.939Z,63.40
2022-09-26T08:16:23.924Z,63.50
2022-09-26T08:19:01.807Z,63.64
2022-09-26T08:21:45.746Z,64.05
2022-09-26T08:24:14.504Z,64.18
2022-09-26T08:26:56.428Z,63.73
2022-09-26T08:29:28.379Z,63.17
2022-09-26T08:31:56.361Z,62.88
2022-09-26T08:34:28.390Z,62.84
2022-09-26T08:37:27.632Z,62.75
2022-09-26T08:40:35.460Z,62.69
2022-09-26T08:43:43.090Z,63.30
2022-09-26T08:46:53.608Z,63.26
2022-09-26T08:49:48.766Z,63.01
2022-09-26T08:52:35.937Z,62.83
2022-09-26T08:55:20.341Z,62.47
2022-09-26T08:57:56.848Z,62.59
2022-09-26T09:00:27.269Z,62.67
2022-09-26T09:03:10.941Z,62.74
2022-09-26T09:06:18.062Z,62.72
2022-09-26T09:08:58.140Z,62.72
2022-09-26T09:15:23.654Z,63.48
2022-09-26T09:18:31.164Z,63.32
2022-09-26T09:24:59.636Z,63.59
2022-09-26T09:27:55.053Z,63.69
2022-09-26T09:30:38.437Z,63.71
2022-09-26T09:33:30.398Z,63.73
2022-09-26T09:36:26.454Z,63.75
2022-09-26T09:39:32.480Z,63.62
2022-09-26T09:42:13.473Z,63.80
2022-09-26T09:44:49.859Z,63.89
2022-09-26T09:47:31.452Z,63.43
2022-09-26T09:50:00.265Z,63.54
2022-09-26T09:52:40.629Z,63.74
2022-09-26T09:58:44.606Z,63.73
2022-09-26T10:01:22.760Z,63.76
2022-09-26T10:04:07.692Z,63.50
2022-09-26T10:06:44.105Z,63.55
2022-09-26T10:09:36.466Z,63.78
2022-09-26T10:12:42.633Z,63.44
2022-09-26T10:16:09.438Z,63.19
2022-09-26T10:22:57.352Z,62.54
2022-09-26T10:25:31.349Z,62.70
2022-09-26T10:28:01.673Z,63.02
2022-09-26T10:30:36.954Z,62.52
2022-09-26T10:33:06.526Z,62.08
2022-09-26T10:35:49.456Z,62.17
2022-09-26T10:38:28.321Z,61.84
2022-09-26T10:41:24.849Z,62.29
2022-09-26T10:43:58.350Z,62.93
2022-09-26T10:47:44.207Z,63.05
2022-09-26T10:50:35.515Z,63.33
2022-09-26T10:53:42.105Z,62.97
2022-09-26T10:56:22.048Z,62.47
2022-09-26T10:58:52.699Z,62.53
2022-09-26T11:01:27.373Z,62.29
2022-09-26T11:04:13.733Z,61.78
2022-09-26T11:07:02.382Z,61.64
2022-09-26T11:09:47.057Z,61.88
2022-09-26T11:13:20.029Z,61.59
2022-09-26T11:16:16.150Z,61.22
2022-09-26T11:19:12.573Z,61.12
2022-09-26T11:22:28.801Z,61.23
2022-09-26T11:25:16.763Z,61.57
2022-09-26T11:38:17.874Z,60.55
2022-09-26T11:41:11.932Z,61.25
2022-09-26T11:44:43.322Z,61.26
2022-09-26T11:47:19.849Z,61.58
2022-09-26T11:49:57.773Z,61.98
2022-09-26T11:52:48.258Z,61.92
2022-09-26T11:55:32.197Z,62.17
2022-09-26T11:58:20.162Z,61.50
2022-09-26T12:01:28.198Z,61.58
2022-09-26T12:08:37.560Z,61.86
2022-09-26T12:11:25.224Z,61.45
2022-09-26T12:14:39.942Z,60.72
2022-09-26T12:17:22.954Z,60.26
2022-09-26T12:20:16.338Z,60.10
2022-09-26T12:23:53.919Z,60.27
2022-09-26T12:26:39.271Z,60.14
2022-09-26T12:29:56.423Z,60.41
2022-09-26T12:32:56.121Z,60.72
2022-09-26T12:35:57.179Z,60.54
2022-09-26T12:41:55.515Z,60.34
2022-09-26T12:44:37.785Z,60.67
2022-09-26T12:48:30.534Z,59.86
2022-09-26T12:51:28.557Z,60.05
2022-09-26T12:54:08.214Z,59.99
2022-09-26T12:57:03.315Z,60.11
2022-09-26T12:59:40.881Z,60.24
2022-09-26T13:05:46.122Z,58.51
2022-09-26T13:08:54.045Z,58.76
2022-09-26T13:11:56.212Z,59.43
2022-09-26T13:15:01.546Z,59.97
2022-09-26T13:18:28.998Z,60.06
2022-09-26T13:21:14.561Z,60.23
2022-09-26T13:24:10.164Z,60.20
2022-09-26T13:26:50.682Z,59.66
2022-09-26T13:30:09.057Z,59.70
2022-09-26T13:33:29.047Z,59.78
2022-09-26T13:36:01.130Z,59.69
2022-09-26T13:39:02.563Z,59.54
2022-09-26T13:41:36.684Z,59.53
2022-09-26T13:49:02.595Z,59.87
2022-09-26T13:52:09.112Z,60.38
2022-09-26T13:55:05.979Z,60.09
2022-09-26T13:58:09.679Z,60.14
2022-09-26T14:00:41.866Z,60.34
2022-09-26T14:03:12.975Z,59.99
2022-09-26T14:05:49.126Z,60.24
2022-09-26T14:08:44.301Z,59.92
2022-09-26T14:11:52.613Z,60.28
2022-09-26T14:14:28.090Z,60.39
2022-09-26T14:17:02.859Z,60.16
2022-09-26T14:20:11.773Z,60.05
2022-09-26T14:22:52.571Z,59.82
2022-09-26T14:25:59.808Z,59.95
2022-09-26T14:36:08.789Z,60.19
2022-09-26T14:37:34.886Z,60.20
2022-09-26T14:38:41.266Z,59.82
2022-09-26T14:41:22.245Z,59.78
2022-09-26T14:43:53.588Z,59.67
2022-09-26T14:49:39.256Z,59.91
2022-09-26T14:52:24.844Z,59.91
2022-09-26T14:58:40.300Z,59.81
2022-09-26T15:01:15.691Z,59.77
2022-09-26T15:03:59.341Z,60.05
2022-09-26T15:06:30.326Z,59.96
2022-09-26T15:09:09.256Z,59.68
2022-09-26T15:15:38.189Z,59.80
2022-09-26T15:18:37.908Z,59.93
2022-09-26T15:21:19.452Z,60.39
2022-09-26T15:23:56.823Z,60.27
2022-09-26T15:27:08.264Z,60.09
2022-09-26T15:30:30.813Z,59.86
2022-09-26T15:32:53.126Z,59.39
2022-09-26T15:41:47.071Z,59.47
2022-09-26T15:47:45.619Z,59.76
2022-09-26T15:50:39.653Z,59.59
2022-09-26T15:53:26.066Z,59.54
2022-09-26T15:56:03.798Z,59.74
2022-09-26T16:01:31.039Z,59.80
2022-09-26T16:04:44.715Z,59.86
2022-09-26T16:07:43.399Z,60.31
2022-09-26T16:10:48.100Z,60.25
2022-09-26T16:13:26.386Z,60.65
2022-09-26T16:16:14.940Z,60.61
2022-09-26T16:19:04.698Z,60.71
2022-09-26T16:21:41.985Z,60.81
2022-09-26T16:24:33.856Z,60.81
2022-09-26T16:27:02.570Z,60.68
2022-09-26T16:29:42.204Z,60.78
2022-09-26T16:32:21.961Z,60.90
2022-09-26T16:34:54.624Z,60.92
2022-09-26T16:37:27.814Z,61.13
2022-09-26T16:40:08.516Z,61.41
2022-09-26T16:42:49.617Z,61.51
2022-09-26T16:45:30.112Z,61.72
2022-09-26T16:47:58.282Z,61.86
2022-09-26T16:50:37.444Z,61.79
2022-09-26T16:53:18.000Z,62.13
2022-09-26T16:55:51.432Z,62.49
2022-09-26T16:58:18.528Z,62.25
2022-09-26T17:01:06.289Z,62.13
2022-09-26T17:03:37.356Z,62.41
2022-09-26T17:06:09.883Z,62.21
2022-09-26T17:08:37.545Z,62.41
2022-09-26T17:11:07.282Z,62.27
2022-09-26T17:13:35.706Z,62.67
2022-09-26T17:16:03.764Z,63.00
2022-09-26T17:18:35.076Z,62.92
2022-09-26T17:21:04.691Z,63.27
2022-09-26T17:23:41.604Z,63.55
2022-09-26T17:26:29.432Z,63.53
2022-09-26T17:28:58.298Z,63.71
2022-09-26T17:31:35.622Z,63.38
2022-09-26T17:34:15.703Z,63.53
2022-09-26T17:36:53.770Z,63.47
2022-09-26T17:39:28.031Z,63.55
2022-09-26T17:41:59.392Z,64.10
2022-09-26T17:44:30.617Z,64.01
2022-09-26T17:47:00.162Z,64.48
2022-09-26T17:49:41.303Z,64.54
2022-09-26T17:52:33.825Z,64.59
2022-09-26T17:55:09.845Z,64.87
2022-09-26T18:00:22.300Z,64.97
2022-09-26T18:03:03.549Z,64.98
2022-09-26T18:05:35.236Z,65.23
2022-09-26T18:08:14.419Z,65.43
2022-09-26T18:10:51.701Z,65.45
2022-09-26T18:13:27.426Z,65.19
2022-09-26T18:16:02.107Z,65.33
2022-09-26T18:18:43.465Z,65.40
2022-09-26T18:21:21.015Z,65.63
2022-09-26T18:24:12.436Z,65.44
2022-09-26T18:26:50.507Z,64.94
2022-09-26T18:29:39.029Z,64.86
2022-09-26T18:32:18.385Z,64.39
2022-09-26T18:34:47.679Z,64.14
2022-09-26T18:37:14.933Z,63.89
2022-09-26T18:39:44.891Z,63.63
2022-09-26T18:42:22.007Z,63.27
2022-09-26T18:44:53.088Z,63.11
2022-09-26T18:47:24.209Z,62.86
2022-09-26T18:50:01.900Z,62.52
2022-09-26T18:52:30.293Z,62.27
2022-09-26T18:58:59.891Z,62.10
2022-09-26T19:01:41.940Z,62.10
2022-09-26T19:07:20.841Z,61.45
2022-09-26T19:09:53.009Z,61.41
2022-09-26T19:12:21.412Z,61.50
2022-09-26T19:14:50.241Z,61.30
2022-09-26T19:17:20.362Z,61.19
2022-09-26T19:19:50.579Z,61.00
2022-09-26T19:23:17.931Z,60.85
2022-09-26T19:25:46.629Z,60.48
2022-09-26T19:28:24.959Z,60.28
2022-09-26T19:30:58.427Z,60.19
2022-09-26T19:33:30.691Z,59.78
2022-09-26T19:36:01.153Z,59.56
2022-09-26T19:38:29.849Z,59.60
2022-09-26T19:41:01.944Z,59.63
2022-09-26T19:43:29.230Z,59.05
2022-09-26T19:45:58.372Z,58.84
2022-09-26T19:48:26.907Z,58.51
2022-09-26T19:50:54.090Z,58.34
2022-09-26T19:53:23.862Z,58.06
2022-09-26T19:55:51.273Z,57.88
2022-09-26T19:58:26.101Z,57.66
2022-09-26T20:00:58.685Z,57.55
2022-09-26T20:03:40.179Z,57.27
2022-09-26T20:06:12.822Z,57.33
2022-09-26T20:08:39.877Z,57.26
2022-09-26T20:11:07.315Z,57.10
2022-09-26T20:13:54.206Z,57.21
2022-09-26T20:16:21.266Z,57.18
2022-09-26T20:18:49.157Z,57.27
2022-09-26T20:21:20.593Z,57.33
2022-09-26T20:23:47.911Z,57.18
2022-09-26T20:26:15.579Z,57.24
2022-09-26T20:28:42.665Z,57.26
2022-09-26T20:31:24.950Z,57.23
2022-09-26T20:33:54.004Z,57.38
2022-09-26T20:36:35.011Z,57.21
2022-09-26T20:39:12.425Z,57.32
2022-09-26T20:41:43.136Z,57.26
2022-09-26T20:44:18.627Z,57.41
2022-09-26T20:46:56.605Z,57.39
2022-09-26T20:49:39.858Z,57.37
2022-09-26T20:52:11.059Z,57.47
2022-09-26T20:54:38.077Z,57.34
2022-09-26T20:57:05.223Z,57.40
2022-09-26T20:59:35.160Z,57.48
2022-09-26T21:02:21.219Z,57.49
2022-09-26T21:04:48.475Z,57.38
2022-09-26T21:07:17.028Z,57.54
2022-09-26T21:09:47.326Z,57.46
2022-09-26T21:12:17.655Z,57.53
2022-09-26T21:14:44.844Z,57.45
2022-09-26T21:17:38.115Z,57.52
2022-09-26T21:20:07.256Z,57.42
2022-09-26T21:22:52.806Z,57.46
2022-09-26T21:25:23.487Z,57.37
2022-09-26T21:27:59.478Z,57.52
2022-09-26T21:30:26.571Z,57.41
2022-09-26T21:32:58.796Z,57.36
2022-09-26T21:35:29.658Z,57.34
2022-09-26T21:37:58.247Z,57.38
2022-09-26T21:40:33.221Z,57.41
2022-09-26T21:43:14.311Z,57.30
2022-09-26T21:45:43.277Z,57.33
2022-09-26T21:48:13.040Z,57.33
2022-09-26T21:50:44.403Z,57.22
2022-09-26T21:53:17.841Z,57.28
2022-09-26T21:55:53.685Z,57.26
2022-09-26T21:58:25.434Z,57.32
2022-09-26T22:00:53.986Z,57.27
2022-09-26T22:03:22.680Z,57.32
2022-09-26T22:05:49.829Z,57.20
2022-09-26T22:08:18.019Z,57.20
2022-09-26T22:10:44.977Z,57.24
2022-09-26T22:13:13.220Z,57.18
2022-09-26T22:15:41.015Z,57.28
2022-09-26T22:18:08.415Z,57.05
2022-09-26T22:20:35.900Z,57.17
2022-09-26T22:23:03.667Z,57.17
2022-09-26T22:25:31.085Z,57.21
2022-09-26T22:27:58.097Z,57.23
2022-09-26T22:31:53.356Z,57.11
2022-09-26T22:38:27.433Z,57.06
2022-09-26T22:41:05.376Z,57.03
2022-09-26T22:43:37.838Z,57.13
2022-09-26T22:46:11.322Z,57.15
2022-09-26T22:48:52.437Z,57.12
2022-09-26T22:51:53.196Z,57.07
2022-09-26T22:54:40.276Z,56.99
2022-09-26T22:57:19.569Z,56.98
2022-09-26T22:59:46.902Z,57.03
2022-09-26T23:02:19.666Z,57.11
2022-09-26T23:04:49.729Z,57.00
2022-09-26T23:07:20.705Z,57.01
2022-09-26T23:09:51.163Z,57.03
2022-09-26T23:12:26.504Z,57.10
2022-09-26T23:14:57.147Z,57.01
2022-09-26T23:17:25.317Z,56.98
2022-09-26T23:19:55.987Z,57.00
2022-09-26T23:22:44.244Z,56.78
2022-09-26T23:25:13.181Z,56.89
2022-09-26T23:27:46.400Z,56.80
2022-09-26T23:30:13.671Z,56.87
2022-09-26T23:32:49.249Z,56.87
2022-09-26T23:38:14.325Z,56.87
2022-09-26T23:40:42.975Z,56.80
2022-09-26T23:43:11.913Z,56.87
2022-09-26T23:45:45.000Z,56.91
2022-09-26T23:48:17.750Z,56.89
2022-09-26T23:50:55.135Z,56.85
2022-09-26T23:53:22.861Z,56.64
2022-09-26T23:55:59.314Z,56.70
2022-09-26T23:58:41.856Z,56.70
